Huvudsida
METAR-TAF:

METAR-TAF

Flygplatser :

Caracas, Venezuela

latitud: 10-36N, longitud: 066-59W, höjd: 43 m

Aktuellt väderrapport

Denna rapport gjordes för 1 timme och 57 minuter sedan, klockan 23:00 UTC
Vind 4 kt från ost
Temperatur 28°C
Fuktighet 66%
Tryck 1006 hPa
Sikt 10 km eller mer
Spridda moln på en höjd av 1600 ft

METAR: SVMI 212300Z 09004KT 9999 SCT016 28/21 Q1006

Tid: 20:57 (00:57 UTC)

Väderprognos

Denna rapport gjordes för 2 timmar och 57 minuter sedan, klockan 22:00 UTC
Prognos gäller från 22 kl. 00 UTC till 23 kl. 00 UTC
Vind 9 kt från väst
Sikt 10 km eller mer
Få moln på en höjd av 1600 ft
Spridda moln på en höjd av 7000 ft
Blir
från 22 kl. 00 UTC till 22 kl. 05 UTC
Vind 6 kt från väst
Sikt 10 km eller mer
Spridda moln på en höjd av 1600 ft

TAF: SVMI 212200Z 2200/2300 26009KT 9999 FEW016 SCT070 TX31/2118Z TN24/2210Z BECMG 2200/2205 27006KT 9999 SCT016

Aktuella väderrapporter och prognoser från 4000 flygplatser (METAR- och TAF-rapporter).

De tillgängliga stationerna syns som gula och röda prickar på kartan.

För musen över prickarna för att se namnen på stationerna.

Klicka sedan för att få väderrapporter och prognoser.

För att ändra kartan: Klicka på de gröna knapparna med ett svart kors på för att zooma in; den gröna knappen med ett streck på för att zooma ut; eller på de gröna pilarna för angränsande kartor.


METAR-TAF: